createdAt,value
2022-11-30T00:01:20.316Z,13.13
2022-11-30T00:03:48.499Z,13.10
2022-11-30T00:06:22.865Z,12.23
2022-11-30T00:08:54.266Z,11.68
2022-11-30T00:11:22.563Z,11.10
2022-11-30T00:13:50.718Z,12.00
2022-11-30T00:16:18.307Z,11.48
2022-11-30T00:18:46.005Z,11.02
2022-11-30T00:21:14.836Z,11.50
2022-11-30T00:23:44.436Z,11.60
2022-11-30T00:26:14.751Z,10.77
2022-11-30T00:28:43.798Z,11.30
2022-11-30T00:31:14.138Z,11.50
2022-11-30T00:33:42.185Z,10.98
2022-11-30T00:36:15.149Z,10.57
2022-11-30T00:38:43.320Z,10.80
2022-11-30T00:41:11.341Z,10.63
2022-11-30T00:43:39.034Z,11.05
2022-11-30T00:46:09.205Z,10.70
2022-11-30T00:48:37.880Z,10.68
2022-11-30T00:51:06.048Z,11.23
2022-11-30T00:53:34.092Z,10.52
2022-11-30T00:56:01.665Z,10.27
2022-11-30T00:58:29.215Z,10.48
2022-11-30T01:00:56.820Z,10.40
2022-11-30T01:03:24.518Z,10.00
2022-11-30T01:05:52.118Z,10.90
2022-11-30T01:08:19.844Z,10.80
2022-11-30T01:10:53.233Z,10.57
2022-11-30T01:13:20.791Z,10.63
2022-11-30T01:15:48.401Z,10.20
2022-11-30T01:18:16.129Z,10.27
2022-11-30T01:20:43.768Z,10.32
2022-11-30T01:23:11.441Z,10.02
2022-11-30T01:25:39.213Z,9.82
2022-11-30T01:28:08.811Z,10.30
2022-11-30T01:30:36.401Z,10.60
2022-11-30T01:33:07.165Z,11.15
2022-11-30T01:35:34.764Z,9.88
2022-11-30T01:38:02.336Z,10.65
2022-11-30T01:40:29.925Z,9.57
2022-11-30T01:42:57.511Z,10.23
2022-11-30T01:45:25.139Z,9.70
2022-11-30T01:47:54.419Z,9.40
2022-11-30T01:50:27.008Z,9.50
2022-11-30T01:52:56.855Z,9.73
2022-11-30T01:55:35.532Z,9.90
2022-11-30T01:58:14.039Z,9.98
2022-11-30T02:00:47.093Z,9.77
2022-11-30T02:03:26.657Z,9.80
2022-11-30T02:05:54.638Z,10.55
2022-11-30T02:08:23.137Z,10.07
2022-11-30T02:10:57.977Z,9.88
2022-11-30T02:13:58.607Z,10.25
2022-11-30T02:16:44.189Z,11.07
2022-11-30T02:19:14.589Z,10.07
2022-11-30T02:22:03.769Z,10.60
2022-11-30T02:24:37.173Z,10.32
2022-11-30T02:27:30.954Z,10.93
2022-11-30T02:30:09.615Z,9.80
2022-11-30T02:32:53.094Z,10.35
2022-11-30T02:35:23.333Z,9.65
2022-11-30T02:37:52.659Z,9.98
2022-11-30T02:40:20.858Z,10.13
2022-11-30T02:42:50.570Z,9.93
2022-11-30T02:45:21.347Z,9.23
2022-11-30T02:47:57.763Z,10.73
2022-11-30T02:55:29.418Z,9.52
2022-11-30T02:57:56.976Z,9.88
2022-11-30T03:00:24.673Z,9.77
2022-11-30T03:02:52.298Z,10.30
2022-11-30T03:05:19.937Z,10.27
2022-11-30T03:07:47.565Z,9.98
2022-11-30T03:10:15.381Z,10.25
2022-11-30T03:12:42.921Z,11.05
2022-11-30T03:15:10.900Z,10.10
2022-11-30T03:17:38.576Z,10.40
2022-11-30T03:20:06.863Z,9.95
2022-11-30T03:22:34.404Z,10.18
2022-11-30T03:25:01.962Z,10.77
2022-11-30T03:27:29.529Z,10.05
2022-11-30T03:29:57.067Z,9.88
2022-11-30T03:32:24.616Z,10.20
2022-11-30T03:34:52.191Z,10.45
2022-11-30T03:37:19.860Z,10.75
2022-11-30T03:39:47.688Z,11.02
2022-11-30T03:42:15.327Z,10.63
2022-11-30T03:44:42.915Z,10.38
2022-11-30T03:47:10.574Z,10.40
2022-11-30T03:49:38.095Z,10.50
2022-11-30T03:52:05.975Z,10.52
2022-11-30T03:54:33.524Z,10.40
2022-11-30T03:57:01.098Z,10.85
2022-11-30T03:59:28.654Z,10.77
2022-11-30T04:01:56.266Z,11.38
2022-11-30T04:04:23.969Z,10.65
2022-11-30T04:06:51.543Z,11.10
2022-11-30T04:09:19.191Z,11.52
2022-11-30T04:11:46.818Z,10.68
2022-11-30T04:14:14.512Z,10.98
2022-11-30T04:16:42.110Z,11.38
2022-11-30T04:19:09.651Z,10.75
2022-11-30T04:21:37.166Z,10.60
2022-11-30T04:24:04.954Z,10.75
2022-11-30T04:26:32.494Z,10.98
2022-11-30T04:29:04.169Z,10.95
2022-11-30T04:31:32.140Z,10.25
2022-11-30T04:33:59.833Z,10.82
2022-11-30T04:36:27.609Z,10.70
2022-11-30T04:38:55.223Z,11.85
2022-11-30T04:41:22.776Z,11.88
2022-11-30T04:43:50.348Z,11.73
2022-11-30T04:46:17.956Z,11.20
2022-11-30T04:48:45.538Z,11.38
2022-11-30T04:51:13.084Z,10.80
2022-11-30T04:53:40.640Z,10.80
2022-11-30T04:56:09.899Z,11.88
2022-11-30T04:58:38.950Z,10.90
2022-11-30T05:01:07.854Z,11.15
2022-11-30T05:03:35.681Z,11.00
2022-11-30T05:06:03.412Z,11.27
2022-11-30T05:08:30.994Z,10.75
2022-11-30T05:10:58.604Z,10.75
2022-11-30T05:13:27.138Z,10.82
2022-11-30T05:15:55.123Z,10.25
2022-11-30T05:18:22.928Z,10.75
2022-11-30T05:20:54.227Z,10.82
2022-11-30T05:23:22.178Z,10.23
2022-11-30T05:25:50.747Z,10.93
2022-11-30T05:28:18.504Z,9.65
2022-11-30T05:30:46.069Z,9.60
2022-11-30T05:33:13.792Z,9.90
2022-11-30T05:35:41.382Z,9.40
2022-11-30T05:38:09.020Z,9.68
2022-11-30T05:40:36.716Z,9.00
2022-11-30T05:43:05.087Z,9.15
2022-11-30T05:45:32.726Z,8.80
2022-11-30T05:48:00.407Z,9.25
2022-11-30T05:50:28.067Z,8.73
2022-11-30T05:53:00.817Z,8.80
2022-11-30T05:55:29.608Z,8.68
2022-11-30T05:57:57.355Z,8.88
2022-11-30T06:00:25.007Z,9.20
2022-11-30T06:02:59.044Z,8.80
2022-11-30T06:05:27.777Z,9.43
2022-11-30T06:07:55.671Z,8.60
2022-11-30T06:10:25.369Z,8.98
2022-11-30T06:12:53.528Z,9.15
2022-11-30T06:15:21.144Z,10.15
2022-11-30T06:17:48.713Z,9.98
2022-11-30T06:20:16.593Z,10.00
2022-11-30T06:22:46.757Z,8.77
2022-11-30T06:25:15.000Z,10.20
2022-11-30T06:27:43.619Z,9.88
2022-11-30T06:30:11.898Z,9.57
2022-11-30T06:32:39.495Z,9.70
2022-11-30T06:35:07.384Z,10.68
2022-11-30T06:37:35.837Z,10.75
2022-11-30T06:40:07.780Z,10.20
2022-11-30T06:42:36.540Z,10.45
2022-11-30T06:45:04.832Z,11.18
2022-11-30T06:47:32.527Z,11.27
2022-11-30T06:50:00.078Z,10.38
2022-11-30T06:52:28.888Z,9.68
2022-11-30T06:54:56.473Z,10.55
2022-11-30T06:57:28.692Z,10.93
2022-11-30T06:59:56.647Z,11.40
2022-11-30T07:02:24.336Z,9.98
2022-11-30T07:04:51.913Z,10.48
2022-11-30T07:07:19.549Z,10.40
2022-11-30T07:09:47.220Z,10.35
2022-11-30T07:12:14.777Z,9.73
2022-11-30T07:14:42.397Z,9.98
2022-11-30T07:17:10.059Z,10.40
2022-11-30T07:19:37.583Z,10.27
2022-11-30T07:22:05.137Z,10.73
2022-11-30T07:24:52.551Z,10.45
2022-11-30T07:27:20.121Z,10.13
2022-11-30T07:29:48.997Z,9.60
2022-11-30T07:32:16.535Z,10.10
2022-11-30T07:34:44.649Z,11.13
2022-11-30T07:37:12.404Z,9.93
2022-11-30T07:39:39.982Z,10.27
2022-11-30T07:42:07.632Z,10.23
2022-11-30T07:44:35.219Z,10.75
2022-11-30T07:47:02.851Z,10.15
2022-11-30T07:49:30.415Z,10.32
2022-11-30T07:51:57.998Z,11.25
2022-11-30T07:54:25.545Z,10.45
2022-11-30T07:56:53.107Z,11.35
2022-11-30T07:59:20.690Z,12.52
2022-11-30T08:01:48.454Z,11.52
2022-11-30T08:04:16.200Z,12.30
2022-11-30T08:06:44.423Z,11.82
2022-11-30T08:09:17.839Z,12.43
2022-11-30T08:11:49.554Z,11.10
2022-11-30T08:14:17.282Z,11.38
2022-11-30T08:16:44.926Z,11.68
2022-11-30T08:19:12.551Z,12.00
2022-11-30T08:21:40.215Z,11.50
2022-11-30T08:24:09.939Z,11.90
2022-11-30T08:26:37.526Z,11.40
2022-11-30T08:29:05.104Z,12.02
2022-11-30T08:31:34.605Z,12.20
2022-11-30T08:34:10.418Z,12.93
2022-11-30T08:36:38.906Z,12.90
2022-11-30T08:39:08.342Z,12.88
2022-11-30T08:41:36.626Z,13.35
2022-11-30T08:44:04.459Z,13.55
2022-11-30T08:46:50.870Z,12.65
2022-11-30T08:49:23.042Z,13.30
2022-11-30T08:52:16.381Z,14.07
2022-11-30T08:54:44.830Z,13.73
2022-11-30T08:57:12.584Z,13.85
2022-11-30T08:59:40.134Z,14.68
2022-11-30T09:02:09.519Z,14.07
2022-11-30T09:04:37.170Z,15.23
2022-11-30T09:07:04.785Z,15.55
2022-11-30T09:09:33.097Z,15.57
2022-11-30T09:12:03.589Z,16.42
2022-11-30T09:14:31.567Z,15.50
2022-11-30T09:16:59.197Z,16.02
2022-11-30T09:19:26.968Z,15.52
2022-11-30T09:21:54.574Z,15.07
2022-11-30T09:24:22.348Z,14.77
2022-11-30T09:26:49.980Z,14.20
2022-11-30T09:29:17.615Z,14.07
2022-11-30T09:31:45.198Z,14.55
2022-11-30T09:34:13.125Z,14.35
2022-11-30T09:36:40.721Z,14.63
2022-11-30T09:39:10.973Z,15.63
2022-11-30T09:41:44.603Z,14.93
2022-11-30T09:44:36.451Z,15.18
2022-11-30T09:47:34.858Z,15.18
2022-11-30T09:50:12.514Z,15.70
2022-11-30T09:52:59.131Z,15.52
2022-11-30T09:55:41.922Z,15.52
2022-11-30T09:58:22.128Z,16.52
2022-11-30T10:00:49.689Z,16.70
2022-11-30T10:03:19.716Z,15.75
2022-11-30T10:05:55.818Z,16.35
2022-11-30T10:08:58.782Z,16.42
2022-11-30T10:11:44.593Z,16.08
2022-11-30T10:14:31.383Z,15.70
2022-11-30T10:17:11.631Z,16.10
2022-11-30T10:20:11.191Z,16.30
2022-11-30T10:22:56.623Z,16.02
2022-11-30T10:25:30.075Z,15.80
2022-11-30T10:28:45.436Z,15.38
2022-11-30T10:31:09.870Z,16.17
2022-11-30T10:33:51.020Z,14.65
2022-11-30T10:36:35.613Z,16.00
2022-11-30T10:39:09.627Z,16.10
2022-11-30T10:42:00.347Z,15.68
2022-11-30T10:44:39.866Z,16.75
2022-11-30T10:47:12.436Z,17.30
2022-11-30T10:49:45.074Z,17.75
2022-11-30T10:52:13.335Z,19.00
2022-11-30T10:54:40.895Z,20.48
2022-11-30T10:57:08.605Z,19.92
2022-11-30T10:59:49.280Z,18.83
2022-11-30T11:02:42.395Z,20.00
2022-11-30T11:05:09.943Z,20.52
2022-11-30T11:07:52.783Z,22.02
2022-11-30T11:10:44.554Z,21.13
2022-11-30T11:13:21.820Z,22.52
2022-11-30T11:16:00.684Z,22.08
2022-11-30T11:18:30.267Z,22.33
2022-11-30T11:21:18.335Z,22.13
2022-11-30T11:23:46.473Z,22.27
2022-11-30T11:26:21.859Z,21.33
2022-11-30T11:28:52.310Z,21.77
2022-11-30T11:31:34.856Z,21.98
2022-11-30T11:34:03.532Z,20.35
2022-11-30T11:36:36.962Z,20.92
2022-11-30T11:39:08.646Z,21.67
2022-11-30T11:41:37.636Z,21.13
2022-11-30T11:44:23.552Z,19.50
2022-11-30T11:47:02.830Z,19.48
2022-11-30T11:49:37.500Z,19.33
2022-11-30T11:52:11.323Z,18.67
2022-11-30T11:55:12.832Z,18.02
2022-11-30T11:57:53.262Z,17.75
2022-11-30T12:00:23.350Z,17.20
2022-11-30T12:02:58.442Z,26.92
2022-11-30T12:05:32.697Z,20.80
2022-11-30T12:08:16.049Z,17.75
2022-11-30T12:11:03.052Z,16.50
2022-11-30T12:13:40.388Z,15.35
2022-11-30T12:16:26.285Z,16.63
2022-11-30T12:19:02.676Z,15.95
2022-11-30T12:24:40.951Z,15.30
2022-11-30T12:27:14.318Z,14.20
2022-11-30T12:30:00.691Z,14.38
2022-11-30T12:33:05.616Z,13.73
2022-11-30T12:35:54.788Z,13.23
2022-11-30T12:38:40.717Z,14.52
2022-11-30T12:41:28.044Z,17.75
2022-11-30T12:44:04.592Z,15.25
2022-11-30T12:47:00.572Z,14.30
2022-11-30T12:49:46.388Z,14.85
2022-11-30T12:52:53.356Z,15.10
2022-11-30T12:55:20.814Z,14.35
2022-11-30T12:58:13.387Z,14.90
2022-11-30T13:01:22.021Z,14.57
2022-11-30T13:03:55.461Z,14.88
2022-11-30T13:06:38.753Z,14.77
2022-11-30T13:09:14.195Z,14.65
2022-11-30T13:11:43.887Z,15.40
2022-11-30T13:14:19.102Z,13.75
2022-11-30T13:16:47.459Z,14.00
2022-11-30T13:19:41.103Z,12.82
2022-11-30T13:22:32.772Z,13.57
2022-11-30T13:26:06.158Z,13.27
2022-11-30T13:28:38.219Z,12.68
2022-11-30T13:31:22.044Z,13.27
2022-11-30T13:33:55.704Z,14.43
2022-11-30T13:36:39.001Z,14.48
2022-11-30T13:39:16.442Z,13.85
2022-11-30T13:41:46.450Z,13.13
2022-11-30T13:44:35.623Z,13.45
2022-11-30T13:47:06.755Z,13.57
2022-11-30T13:49:35.996Z,13.70
2022-11-30T13:54:58.267Z,13.25
2022-11-30T13:57:29.125Z,12.90
2022-11-30T14:00:01.074Z,13.48
2022-11-30T14:02:36.424Z,13.57
2022-11-30T14:05:42.604Z,13.40
2022-11-30T14:08:12.224Z,12.85
2022-11-30T14:10:47.945Z,12.98
2022-11-30T14:13:22.750Z,13.48
2022-11-30T14:15:54.442Z,13.82
2022-11-30T14:18:21.990Z,13.82
2022-11-30T14:20:51.646Z,13.38
2022-11-30T14:23:23.262Z,13.68
2022-11-30T14:25:53.094Z,13.52
2022-11-30T14:28:42.378Z,14.25
2022-11-30T14:31:13.342Z,14.77
2022-11-30T14:33:51.836Z,14.77
2022-11-30T14:36:20.281Z,14.18
2022-11-30T14:38:47.944Z,14.65
2022-11-30T14:41:25.108Z,14.35
2022-11-30T14:44:12.905Z,14.00
2022-11-30T14:46:40.958Z,13.63
2022-11-30T14:49:13.785Z,15.30
2022-11-30T14:51:51.348Z,14.32
2022-11-30T14:54:51.135Z,14.10
2022-11-30T14:57:39.225Z,13.85
2022-11-30T15:00:15.256Z,13.82
2022-11-30T15:02:44.037Z,14.50
2022-11-30T15:05:21.710Z,13.45
2022-11-30T15:07:50.276Z,13.57
2022-11-30T15:10:38.232Z,11.98
2022-11-30T15:13:06.203Z,11.30
2022-11-30T15:15:38.719Z,9.93
2022-11-30T15:18:17.590Z,9.70
2022-11-30T15:20:45.068Z,9.15
2022-11-30T15:23:14.475Z,9.05
2022-11-30T15:25:48.769Z,8.88
2022-11-30T15:28:23.953Z,9.23
2022-11-30T15:30:56.269Z,8.88
2022-11-30T15:33:26.272Z,9.13
2022-11-30T15:38:50.361Z,9.00
2022-11-30T15:41:22.974Z,8.68
2022-11-30T15:43:53.529Z,8.63
2022-11-30T15:46:45.784Z,9.13
2022-11-30T15:49:24.675Z,8.40
2022-11-30T15:52:10.326Z,8.20
2022-11-30T15:54:59.670Z,8.70
2022-11-30T15:57:28.115Z,8.32
2022-11-30T16:00:29.285Z,8.88
2022-11-30T16:03:10.388Z,8.60
2022-11-30T16:05:39.612Z,8.93
2022-11-30T16:08:15.914Z,9.32
2022-11-30T16:10:43.978Z,8.85
2022-11-30T16:13:20.421Z,8.77
2022-11-30T16:15:50.576Z,9.85
2022-11-30T16:18:22.165Z,10.35
2022-11-30T16:20:54.808Z,10.05
2022-11-30T16:23:22.698Z,9.55
2022-11-30T16:25:51.612Z,9.60
2022-11-30T16:28:20.613Z,9.40
2022-11-30T16:30:49.087Z,9.27
2022-11-30T16:33:22.560Z,10.80
2022-11-30T16:36:08.170Z,10.18
2022-11-30T16:38:35.748Z,10.95
2022-11-30T16:41:23.709Z,11.20
2022-11-30T16:43:53.859Z,11.65
2022-11-30T16:46:23.717Z,12.25
2022-11-30T16:48:51.399Z,12.75
2022-11-30T16:51:27.678Z,13.45
2022-11-30T16:53:55.780Z,12.85
2022-11-30T16:56:23.618Z,12.07
2022-11-30T16:58:51.493Z,13.05
2022-11-30T17:01:35.238Z,13.40
2022-11-30T17:04:26.890Z,13.23
2022-11-30T17:07:00.557Z,14.20
2022-11-30T17:09:30.473Z,14.05
2022-11-30T17:11:58.246Z,14.00
2022-11-30T17:14:25.958Z,14.63
2022-11-30T17:16:53.643Z,14.50
2022-11-30T17:19:24.104Z,15.20
2022-11-30T17:21:51.680Z,15.13
2022-11-30T17:24:19.352Z,14.63
2022-11-30T17:26:47.059Z,14.95
2022-11-30T17:29:14.643Z,15.43
2022-11-30T17:31:42.232Z,15.90
2022-11-30T17:34:09.816Z,15.77
2022-11-30T17:36:37.483Z,14.45
2022-11-30T17:39:06.928Z,14.95
2022-11-30T17:41:34.561Z,15.77
2022-11-30T17:44:02.836Z,15.15
2022-11-30T17:46:30.519Z,16.20
2022-11-30T17:48:58.621Z,15.38
2022-11-30T17:51:26.287Z,16.25
2022-11-30T17:53:53.945Z,15.57
2022-11-30T17:56:21.583Z,16.02
2022-11-30T17:58:49.362Z,12.85
2022-11-30T18:01:23.460Z,15.80
2022-11-30T18:03:52.249Z,14.73
2022-11-30T18:06:20.746Z,15.57
2022-11-30T18:08:48.473Z,14.55
2022-11-30T18:11:18.965Z,14.45
2022-11-30T18:13:47.068Z,14.35
2022-11-30T18:16:17.656Z,14.73
2022-11-30T18:18:48.157Z,16.00
2022-11-30T18:21:21.340Z,15.13
2022-11-30T18:23:49.861Z,14.82
2022-11-30T18:26:23.331Z,13.73
2022-11-30T18:28:58.820Z,14.18
2022-11-30T18:31:27.951Z,14.60
2022-11-30T18:34:00.346Z,13.93
2022-11-30T18:36:28.648Z,14.13
2022-11-30T18:38:56.340Z,13.20
2022-11-30T18:41:26.216Z,13.50
2022-11-30T18:43:54.732Z,13.20
2022-11-30T18:46:22.642Z,13.23
2022-11-30T18:48:51.667Z,13.50
2022-11-30T18:51:24.483Z,13.02
2022-11-30T18:53:59.386Z,13.65
2022-11-30T18:56:29.924Z,13.07
2022-11-30T18:59:02.717Z,13.18
2022-11-30T19:01:30.895Z,13.52
2022-11-30T19:04:00.979Z,13.43
2022-11-30T19:06:29.890Z,13.68
2022-11-30T19:08:58.609Z,13.60
2022-11-30T19:11:26.325Z,14.82
2022-11-30T19:13:55.604Z,14.18
2022-11-30T19:16:24.763Z,14.25
2022-11-30T19:18:53.315Z,14.00
2022-11-30T19:21:22.241Z,13.82
2022-11-30T19:23:50.215Z,13.77
2022-11-30T19:26:17.786Z,13.77
2022-11-30T19:28:46.133Z,14.45
2022-11-30T19:31:18.655Z,13.23
2022-11-30T19:33:48.497Z,15.30
2022-11-30T19:36:21.864Z,15.68
2022-11-30T19:38:51.376Z,15.35
2022-11-30T19:41:20.899Z,14.70
2022-11-30T19:43:58.106Z,15.63
2022-11-30T19:46:28.939Z,14.82
2022-11-30T19:49:01.131Z,15.55
2022-11-30T19:51:29.877Z,16.17
2022-11-30T19:53:59.292Z,15.80
2022-11-30T19:56:27.783Z,14.75
2022-11-30T19:59:01.156Z,15.35
2022-11-30T20:01:32.148Z,14.95
2022-11-30T20:04:00.000Z,14.77
2022-11-30T20:06:29.703Z,17.08
2022-11-30T20:08:57.393Z,17.10
2022-11-30T20:11:25.351Z,15.23
2022-11-30T20:13:53.302Z,15.15
2022-11-30T20:16:22.737Z,14.65
2022-11-30T20:18:55.312Z,15.90
2022-11-30T20:21:25.635Z,15.88
2022-11-30T20:23:54.811Z,16.92
2022-11-30T20:26:26.308Z,16.83
2022-11-30T20:28:57.410Z,16.20
2022-11-30T20:31:25.910Z,16.85
2022-11-30T20:33:53.522Z,15.90
2022-11-30T20:36:21.662Z,15.32
2022-11-30T20:38:49.279Z,16.23
2022-11-30T20:41:20.123Z,14.73
2022-11-30T20:43:48.022Z,16.33
2022-11-30T20:46:17.716Z,15.93
2022-11-30T20:48:45.865Z,16.45
2022-11-30T20:51:30.132Z,15.48
2022-11-30T20:54:05.537Z,15.82
2022-11-30T20:56:35.242Z,15.75
2022-11-30T20:59:05.084Z,16.55
2022-11-30T21:01:33.066Z,16.55
2022-11-30T21:04:01.140Z,16.15
2022-11-30T21:06:30.381Z,17.00
2022-11-30T21:08:58.702Z,17.00
2022-11-30T21:11:27.483Z,17.20
2022-11-30T21:13:55.337Z,15.88
2022-11-30T21:16:28.086Z,15.77
2022-11-30T21:18:57.116Z,15.38
2022-11-30T21:21:26.368Z,16.98
2022-11-30T21:23:53.950Z,16.15
2022-11-30T21:26:23.679Z,16.42
2022-11-30T21:28:53.782Z,15.88
2022-11-30T21:31:22.388Z,15.75
2022-11-30T21:33:53.453Z,15.93
2022-11-30T21:36:23.004Z,16.50
2022-11-30T21:39:05.058Z,16.63
2022-11-30T21:41:35.401Z,16.67
2022-11-30T21:44:03.986Z,15.68
2022-11-30T21:46:31.852Z,15.90
2022-11-30T21:48:59.701Z,16.92
2022-11-30T21:51:28.890Z,16.58
2022-11-30T21:53:59.093Z,17.48
2022-11-30T21:56:30.217Z,17.73
2022-11-30T21:58:58.369Z,18.13
2022-11-30T22:01:30.260Z,17.48
2022-11-30T22:03:59.067Z,16.92
2022-11-30T22:06:28.476Z,17.15
2022-11-30T22:09:03.413Z,16.77
2022-11-30T22:11:31.927Z,17.25
2022-11-30T22:13:59.740Z,16.40
2022-11-30T22:16:33.997Z,17.42
2022-11-30T22:19:03.905Z,17.02
2022-11-30T22:21:31.934Z,16.20
2022-11-30T22:24:04.782Z,17.52
2022-11-30T22:26:33.444Z,17.70
2022-11-30T22:29:04.276Z,17.05
2022-11-30T22:31:40.336Z,16.23
2022-11-30T22:34:08.087Z,17.13
2022-11-30T22:36:38.304Z,17.80
2022-11-30T22:39:12.120Z,16.58
2022-11-30T22:41:40.905Z,17.77
2022-11-30T22:44:09.875Z,17.90
2022-11-30T22:46:37.749Z,17.42
2022-11-30T22:49:07.498Z,19.85
2022-11-30T22:51:36.489Z,17.92
2022-11-30T22:54:04.449Z,18.00
2022-11-30T22:56:34.743Z,18.10
2022-11-30T22:59:02.780Z,17.27
2022-11-30T23:01:38.911Z,17.85
2022-11-30T23:04:09.309Z,16.80
2022-11-30T23:06:38.447Z,19.33
2022-11-30T23:09:07.588Z,19.08
2022-11-30T23:11:35.906Z,18.95
2022-11-30T23:14:06.263Z,19.25
2022-11-30T23:16:36.762Z,19.20
2022-11-30T23:19:05.134Z,18.83
2022-11-30T23:21:44.857Z,20.27
2022-11-30T23:24:20.625Z,19.67
2022-11-30T23:26:48.455Z,19.98
2022-11-30T23:29:16.971Z,20.35
2022-11-30T23:31:45.869Z,20.35
2022-11-30T23:34:16.404Z,20.42
2022-11-30T23:36:44.302Z,21.00
2022-11-30T23:39:14.703Z,20.67
2022-11-30T23:41:43.611Z,20.70
2022-11-30T23:44:11.656Z,21.00
2022-11-30T23:46:39.558Z,21.30
2022-11-30T23:49:08.142Z,21.63
2022-11-30T23:51:35.965Z,22.80
2022-11-30T23:54:04.030Z,23.23
2022-11-30T23:56:31.584Z,21.50
2022-11-30T23:58:59.171Z,24.50
